Time;durP1;ratioP1;P1;durP2;ratioP2;P2;SDS_P1;SDS_P2;PMS_P1;PMS_P2;Temp;Humidity;BMP_temperature;BMP_pressure;BME280_temperature;BME280_humidity;BME280_pressure;Samples;Min_cycle;Max_cycle;Signal;HPM_P1;HPM_P2
2023/12/10 10:08:36;;;;;;;10.33;2.27;;;;;;;12.77;76.50;98381.28;5112387;27;20528;-88
2023/12/10 10:14:03;;;;;;;9.70;2.80;;;;;;;16.90;55.98;98434.94;5090668;28;40753;-87
2023/12/10 10:19:41;;;;;;;5.70;1.93;;;;;;;17.23;51.18;98446.91;5091267;28;42551;-89
2023/12/10 10:38:04;;;;;;;7.47;2.77;;;;;;;16.23;51.51;98461.75;5137457;27;41517;-88
2023/12/10 10:40:38;;;;;;;6.83;3.20;;;;;;;16.40;49.91;98434.31;5115465;27;40674;-89
2023/12/10 10:43:31;;;;;;;4.63;1.77;;;;;;;16.17;50.94;98439.97;5098091;27;44330;-89
2023/12/10 10:49:40;;;;;;;4.17;1.60;;;;;;;17.16;47.39;98424.44;5129757;27;39005;-88
2023/12/10 10:52:13;;;;;;;4.37;1.40;;;;;;;17.23;46.77;98463.81;5114851;27;42438;-90
2023/12/10 10:54:49;;;;;;;5.33;1.83;;;;;;;17.49;46.68;98447.91;5114380;27;43365;-88
2023/12/10 11:03:16;;;;;;;6.53;2.77;;;;;;;16.87;47.41;98429.88;5129660;27;40235;-89
2023/12/10 11:09:02;;;;;;;7.63;2.20;;;;;;;16.33;48.85;98418.00;5113266;27;42332;-89
2023/12/10 11:28:24;;;;;;;4.13;1.70;;;;;;;21.04;39.04;98451.75;5118476;27;40359;-86
2023/12/10 11:30:51;;;;;;;5.87;1.57;;;;;;;20.28;40.67;98473.63;5103837;27;42264;-89
2023/12/10 11:33:21;;;;;;;7.93;2.00;;;;;;;19.44;41.77;98471.03;5103686;27;44450;-87
2023/12/10 11:56:16;;;;;;;6.67;1.73;;;;;;;19.21;42.59;98464.53;5132270;27;40752;-90
2023/12/10 11:58:46;;;;;;;4.30;1.90;;;;;;;19.00;43.77;98481.88;5099797;27;41066;-88
2023/12/10 12:01:18;;;;;;;4.90;1.57;;;;;;;18.59;44.33;98485.25;5100658;27;42611;-90
2023/12/10 12:07:00;;;;;;;5.67;1.57;;;;;;;16.97;46.44;98436.03;5099044;27;39593;-88
2023/12/10 12:09:48;;;;;;;5.50;1.67;;;;;;;16.68;47.89;98470.91;5116925;27;43207;-89
2023/12/10 12:12:38;;;;;;;5.17;1.57;;;;;;;16.38;48.64;98471.03;5099186;27;41960;-90
2023/12/10 12:23:06;;;;;;;8.50;2.13;;;;;;;15.66;50.68;98394.00;5125499;27;43046;-89
2023/12/10 12:42:05;;;;;;;5.87;2.00;;;;;;;15.46;51.45;98422.41;5131127;27;42859;-90
2023/12/10 12:45:06;;;;;;;4.20;1.50;;;;;;;15.73;50.14;98432.47;5099385;27;39141;-89
2023/12/10 12:47:55;;;;;;;4.87;1.40;;;;;;;15.95;50.33;98439.41;5098652;27;41081;-87
2023/12/10 12:53:11;;;;;;;4.37;1.90;;;;;;;18.73;46.58;98460.56;5093555;28;41437;-86
2023/12/10 12:55:54;;;;;;;4.53;1.37;;;;;;;19.33;42.80;98484.72;5095508;28;39024;-89
2023/12/10 12:58:46;;;;;;;5.73;1.60;;;;;;;19.57;44.36;98458.00;5078582;28;41101;-90
2023/12/10 13:01:56;;;;;;;5.37;2.13;;;;;;;19.88;41.19;98485.16;5037110;28;43516;-90
2023/12/10 13:04:44;;;;;;;6.90;1.77;;;;;;;19.06;42.03;98455.38;5036992;28;41481;-88
2023/12/10 13:07:14;;;;;;;6.77;1.87;;;;;;;18.07;43.05;98452.91;5085437;28;39051;-89
2023/12/10 13:10:00;;;;;;;4.33;1.67;;;;;;;17.38;45.55;98450.81;5077770;28;41226;-88
2023/12/10 13:12:31;;;;;;;4.03;1.70;;;;;;;16.57;46.48;98433.56;5077847;28;41641;-92
2023/12/10 13:15:00;;;;;;;4.27;1.60;;;;;;;16.06;48.02;98448.13;5077977;28;41371;-89
2023/12/10 13:20:42;;;;;;;5.97;1.57;;;;;;;15.03;50.08;98422.72;5108208;27;42671;-90
2023/12/10 13:23:18;;;;;;;5.17;2.10;;;;;;;14.58;51.44;98404.41;5098616;27;45279;-91
2023/12/10 13:25:46;;;;;;;5.30;1.60;;;;;;;14.50;52.17;98414.88;5098385;27;42538;-89
2023/12/10 13:28:34;;;;;;;5.53;1.67;;;;;;;14.26;52.62;98384.97;5098549;27;38888;-90
2023/12/10 13:31:31;;;;;;;3.83;1.87;;;;;;;14.38;53.42;98410.56;5094540;27;40859;-89
2023/12/10 13:33:59;;;;;;;3.93;1.70;;;;;;;14.07;53.75;98390.16;5098429;27;42979;-88
2023/12/10 13:36:29;;;;;;;5.30;1.60;;;;;;;14.12;54.09;98419.91;5098574;27;41190;-90
2023/12/10 13:38:56;;;;;;;5.17;1.60;;;;;;;14.01;54.32;98418.97;5081164;27;41270;-88
2023/12/10 13:49:46;;;;;;;8.27;2.10;;;;;;;13.54;58.46;98392.81;5150666;27;42303;-90
2023/12/10 13:52:30;;;;;;;6.20;1.77;;;;;;;13.28;59.66;98370.97;5076014;28;40219;-89
2023/12/10 13:55:18;;;;;;;6.07;1.97;;;;;;;13.15;59.95;98357.84;5077836;28;40779;-88
2023/12/10 14:00:47;;;;;;;6.57;2.23;;;;;;;13.05;61.54;98369.31;5077181;28;41587;-89
2023/12/10 14:06:26;;;;;;;10.10;3.17;;;;;;;12.73;63.19;98327.56;5077033;28;42427;-89
2023/12/10 14:09:00;;;;;;;7.57;2.93;;;;;;;12.46;63.77;98312.00;5110284;27;41917;-90
2023/12/10 14:12:16;;;;;;;7.33;2.00;;;;;;;12.32;64.95;98312.22;5097573;27;41502;-90
2023/12/10 14:15:24;;;;;;;8.80;2.50;;;;;;;12.61;65.71;98359.56;5115107;27;42240;-88
2023/12/10 14:29:18;;;;;;;4.20;2.30;;;;;;;11.88;69.43;98345.69;5090257;28;41391;-88
2023/12/10 14:35:28;;;;;;;6.73;2.13;;;;;;;11.74;69.95;98345.88;5057033;28;42002;-88
2023/12/10 15:11:00;;;;;;;9.50;2.30;;;;;;;11.25;74.21;98374.34;5114095;28;43365;-88
2023/12/10 15:14:08;;;;;;;5.43;1.87;;;;;;;11.04;73.73;98340.47;5097888;28;41251;-88
2023/12/10 15:19:42;;;;;;;9.40;2.17;;;;;;;11.07;74.28;98357.94;5097072;28;41670;-88
2023/12/10 15:22:25;;;;;;;10.60;1.83;;;;;;;11.22;73.72;98375.41;5113943;28;44423;-88
2023/12/10 15:24:53;;;;;;;11.23;2.67;;;;;;;10.96;74.00;98318.13;5114410;28;41514;-89
2023/12/10 15:27:23;;;;;;;5.57;1.63;;;;;;;11.08;73.75;98338.44;5097418;28;41512;-91
2023/12/10 15:29:56;;;;;;;9.70;2.87;;;;;;;10.91;73.71;98325.56;5097053;28;41939;-90
2023/12/10 15:32:25;;;;;;;10.70;1.83;;;;;;;10.86;73.91;98307.38;5099553;27;43480;-90
2023/12/10 15:34:53;;;;;;;9.20;2.20;;;;;;;11.07;73.98;98340.25;5080850;27;42847;-88
2023/12/10 15:37:21;;;;;;;14.97;2.30;;;;;;;11.18;73.58;98365.13;5100857;27;39097;-90
2023/12/10 15:39:49;;;;;;;8.60;2.23;;;;;;;11.18;73.49;98362.47;5100588;27;41730;-90
2023/12/10 15:42:18;;;;;;;11.90;2.20;;;;;;;11.18;73.69;98365.97;5100815;27;42188;-89
2023/12/10 15:44:47;;;;;;;5.70;2.17;;;;;;;11.16;73.15;98363.41;5100070;27;42125;-89
2023/12/10 15:47:16;;;;;;;9.80;2.43;;;;;;;11.14;73.62;98357.38;5101772;27;39112;-90
2023/12/10 15:49:44;;;;;;;10.70;2.47;;;;;;;11.12;73.34;98351.38;5116821;27;40834;-87
2023/12/10 15:52:12;;;;;;;8.90;2.30;;;;;;;11.21;73.58;98367.56;5113737;27;43011;-90
2023/12/10 15:54:41;;;;;;;13.97;2.53;;;;;;;11.04;73.51;98351.06;5100143;27;40848;-90
2023/12/10 15:57:10;;;;;;;9.27;2.10;;;;;;;10.91;73.69;98334.34;5099623;27;38827;-91
2023/12/10 15:59:38;;;;;;;7.27;2.30;;;;;;;11.12;73.74;98353.16;5098495;28;40785;-90
2023/12/10 16:02:07;;;;;;;5.20;2.20;;;;;;;10.85;73.53;98316.28;5084514;27;41345;-89
2023/12/10 16:04:35;;;;;;;6.70;2.30;;;;;;;10.88;73.77;98320.50;5100418;27;42030;-90
2023/12/10 16:07:03;;;;;;;7.50;1.83;;;;;;;11.10;73.79;98366.53;5099134;27;39273;-90
2023/12/10 16:09:31;;;;;;;7.33;2.10;;;;;;;11.00;73.42;98346.13;5098750;27;40622;-89
2023/12/10 16:11:59;;;;;;;8.33;1.90;;;;;;;10.99;73.78;98347.91;5115147;27;42754;-88
2023/12/10 16:14:27;;;;;;;6.40;1.80;;;;;;;11.01;73.69;98337.19;5098289;27;42364;-90
2023/12/10 16:16:54;;;;;;;6.20;2.03;;;;;;;10.84;73.55;98298.69;5098927;27;39528;-88
2023/12/10 16:19:24;;;;;;;4.67;2.23;;;;;;;11.01;73.59;98313.34;5111688;27;41319;-87
2023/12/10 16:21:52;;;;;;;9.00;1.90;;;;;;;10.96;73.72;98318.97;5113232;27;41834;-86
2023/12/10 16:24:20;;;;;;;6.70;1.53;;;;;;;10.95;73.34;98305.84;5113610;27;41281;-86
2023/12/10 16:26:47;;;;;;;8.67;2.07;;;;;;;11.03;73.34;98317.56;5114330;27;38924;-87
2023/12/10 16:29:16;;;;;;;8.53;2.17;;;;;;;10.90;73.78;98306.16;5112098;27;41851;-84
2023/12/10 16:31:44;;;;;;;4.60;1.83;;;;;;;10.88;73.76;98300.13;5112495;27;41657;-86
2023/12/10 16:34:13;;;;;;;11.37;2.00;;;;;;;10.86;73.93;98286.19;5102399;27;41380;-91
2023/12/10 16:36:42;;;;;;;6.87;1.93;;;;;;;10.73;73.75;98264.19;5097959;27;39168;-90
